Time;durP1;ratioP1;P1;durP2;ratioP2;P2;SDS_P1;SDS_P2;PMS_P1;PMS_P2;Temp;Humidity;BMP_temperature;BMP_pressure;BME280_temperature;BME280_humidity;BME280_pressure;Samples;Min_cycle;Max_cycle;Signal;HPM_P1;HPM_P2
2023/09/16 00:02:20;;;;;;;8.20;5.32;;;16.30;99.90;;;;;;5045343;28;20076;-59
2023/09/16 00:04:47;;;;;;;11.85;6.07;;;16.20;99.90;;;;;;5036145;28;20052;-58
2023/09/16 00:07:14;;;;;;;14.27;6.03;;;16.30;99.90;;;;;;5045622;28;20488;-58
2023/09/16 00:09:41;;;;;;;12.48;6.68;;;16.10;99.90;;;;;;5045116;28;20049;-58
2023/09/16 00:12:09;;;;;;;11.43;7.13;;;16.20;99.90;;;;;;5045909;28;20589;-59
2023/09/16 00:14:36;;;;;;;10.23;6.97;;;16.10;99.90;;;;;;5046217;28;20045;-58
2023/09/16 00:17:04;;;;;;;15.00;6.60;;;16.10;99.90;;;;;;5046602;28;20547;-58
2023/09/16 00:19:31;;;;;;;13.88;6.78;;;16.10;99.90;;;;;;5045376;28;20059;-59
2023/09/16 00:21:57;;;;;;;15.43;7.13;;;16.10;99.90;;;;;;5045895;28;20091;-58
2023/09/16 00:24:24;;;;;;;9.18;6.38;;;16.20;99.90;;;;;;5046066;28;20060;-60
2023/09/16 00:26:52;;;;;;;10.15;6.03;;;16.10;99.90;;;;;;5046615;28;20134;-59
2023/09/16 00:29:19;;;;;;;9.30;5.82;;;16.20;99.90;;;;;;5042134;28;20428;-61
2023/09/16 00:31:46;;;;;;;14.13;6.63;;;16.20;99.90;;;;;;5031577;28;20068;-59
2023/09/16 00:34:13;;;;;;;12.30;5.63;;;16.20;99.90;;;;;;5029758;28;20065;-58
2023/09/16 00:36:39;;;;;;;10.55;6.00;;;16.20;99.90;;;;;;5041142;28;20049;-59
2023/09/16 00:39:06;;;;;;;14.25;6.25;;;16.20;99.90;;;;;;5045890;28;20053;-59
2023/09/16 00:41:33;;;;;;;7.50;5.15;;;16.20;99.90;;;;;;5043612;28;20762;-59
2023/09/16 00:44:00;;;;;;;8.25;5.45;;;16.20;99.90;;;;;;5045574;28;20539;-59
2023/09/16 00:46:27;;;;;;;8.82;5.70;;;16.10;99.90;;;;;;5045982;28;20094;-59
2023/09/16 00:48:53;;;;;;;8.48;5.45;;;16.20;99.90;;;;;;5041313;28;20397;-57
2023/09/16 00:51:20;;;;;;;8.73;5.43;;;16.10;99.90;;;;;;5046031;28;20048;-59
2023/09/16 00:53:48;;;;;;;9.65;5.53;;;16.10;99.90;;;;;;5044116;28;20060;-58
2023/09/16 00:56:15;;;;;;;8.30;5.28;;;16.10;99.90;;;;;;5044755;28;20048;-58
2023/09/16 00:58:42;;;;;;;9.00;5.68;;;16.00;99.90;;;;;;5045775;28;20060;-59
2023/09/16 01:01:09;;;;;;;8.90;4.70;;;15.90;99.90;;;;;;5044441;28;20045;-58
2023/09/16 01:03:36;;;;;;;10.52;5.97;;;15.90;99.90;;;;;;5045968;28;20049;-59
2023/09/16 01:06:04;;;;;;;12.27;5.93;;;15.90;99.90;;;;;;5044823;28;20641;-59
2023/09/16 01:08:33;;;;;;;8.00;5.03;;;16.00;99.90;;;;;;5045880;28;20059;-58
2023/09/16 01:11:02;;;;;;;10.00;5.88;;;15.90;99.90;;;;;;5040450;28;20046;-59
2023/09/16 01:13:29;;;;;;;11.02;5.50;;;15.90;99.90;;;;;;5045675;28;20053;-59
2023/09/16 01:16:01;;;;;;;6.65;4.28;;;15.90;99.90;;;;;;5045317;28;20103;-57
2023/09/16 01:18:32;;;;;;;11.68;5.10;;;15.90;99.90;;;;;;5043360;28;20561;-56
2023/09/16 01:20:59;;;;;;;8.70;5.70;;;15.90;99.90;;;;;;5023768;28;20073;-58
2023/09/16 01:23:26;;;;;;;10.77;5.45;;;15.80;99.90;;;;;;5025545;28;20573;-59
2023/09/16 01:25:53;;;;;;;9.68;5.05;;;15.70;99.90;;;;;;5044609;28;20049;-59
2023/09/16 01:28:22;;;;;;;11.85;5.28;;;15.70;99.90;;;;;;5045398;28;20052;-56
2023/09/16 01:30:50;;;;;;;9.93;6.13;;;15.80;99.90;;;;;;5042356;28;20481;-59
2023/09/16 01:33:24;;;;;;;7.97;5.38;;;15.90;99.90;;;;;;5043696;28;20052;-58
2023/09/16 01:35:55;;;;;;;11.52;5.90;;;15.80;99.90;;;;;;5044537;28;20045;-59
2023/09/16 01:38:23;;;;;;;11.68;5.32;;;15.80;99.90;;;;;;5042606;28;20053;-59
2023/09/16 01:40:50;;;;;;;12.55;5.75;;;15.70;99.90;;;;;;5042326;28;20063;-59
2023/09/16 01:43:17;;;;;;;9.27;5.35;;;15.60;99.90;;;;;;5049313;28;20130;-57
2023/09/16 01:45:44;;;;;;;10.20;5.22;;;15.50;99.90;;;;;;5042724;28;20072;-59
2023/09/16 01:48:11;;;;;;;8.15;5.00;;;15.50;99.90;;;;;;5044089;28;20291;-57
2023/09/16 01:50:38;;;;;;;10.23;5.45;;;15.60;99.90;;;;;;5044020;28;20053;-59
2023/09/16 01:53:07;;;;;;;8.85;5.68;;;15.60;99.90;;;;;;5045261;28;20472;-58
2023/09/16 01:55:34;;;;;;;7.38;5.25;;;15.70;99.90;;;;;;5043096;28;20136;-59
2023/09/16 01:58:01;;;;;;;10.50;5.80;;;15.60;99.90;;;;;;5041717;28;20045;-60
2023/09/16 02:00:28;;;;;;;10.43;5.05;;;15.70;99.90;;;;;;5033927;28;20059;-58
2023/09/16 02:02:55;;;;;;;10.05;5.72;;;15.70;99.90;;;;;;5044121;28;20084;-58
2023/09/16 02:05:21;;;;;;;7.55;5.22;;;15.70;99.90;;;;;;5043401;28;20614;-58
2023/09/16 02:07:48;;;;;;;9.95;5.82;;;15.60;99.90;;;;;;5042889;28;20451;-58
2023/09/16 02:10:15;;;;;;;12.70;6.38;;;15.50;99.90;;;;;;5024225;28;20099;-58
2023/09/16 02:12:42;;;;;;;10.60;5.85;;;15.40;99.90;;;;;;5038445;28;20044;-59
2023/09/16 02:15:09;;;;;;;11.95;5.43;;;15.40;99.90;;;;;;5043855;28;20052;-57
2023/09/16 02:17:38;;;;;;;6.57;4.85;;;15.50;99.90;;;;;;5044191;28;20150;-56
2023/09/16 02:20:09;;;;;;;12.32;6.28;;;15.50;99.90;;;;;;5042314;28;20128;-58
2023/09/16 02:22:37;;;;;;;9.82;5.95;;;15.50;99.90;;;;;;5043205;28;20041;-60
2023/09/16 02:25:04;;;;;;;7.60;5.70;;;15.50;99.90;;;;;;5043510;28;20110;-59
2023/09/16 02:27:32;;;;;;;11.95;6.30;;;15.50;99.90;;;;;;5044158;28;20053;-59
2023/09/16 02:29:59;;;;;;;12.07;5.85;;;15.50;99.90;;;;;;5034531;28;20123;-58
2023/09/16 02:32:25;;;;;;;6.75;4.93;;;15.50;99.90;;;;;;5040994;28;20045;-58
2023/09/16 02:34:52;;;;;;;9.30;5.10;;;15.40;99.90;;;;;;5043316;28;20463;-59
2023/09/16 02:37:20;;;;;;;8.68;5.25;;;15.40;99.90;;;;;;5043700;28;20047;-58
2023/09/16 02:39:47;;;;;;;9.65;5.40;;;15.40;99.90;;;;;;5043659;28;20079;-57
2023/09/16 02:42:14;;;;;;;7.75;5.18;;;15.40;99.90;;;;;;5043523;28;20084;-59
2023/09/16 02:44:41;;;;;;;9.45;4.80;;;15.50;99.90;;;;;;5044357;28;20053;-59
2023/09/16 02:47:08;;;;;;;8.88;5.32;;;15.50;99.90;;;;;;5043990;28;20407;-58
2023/09/16 02:49:34;;;;;;;9.48;5.75;;;15.40;99.90;;;;;;5040666;28;20049;-59
2023/09/16 02:52:01;;;;;;;6.13;4.30;;;15.30;99.90;;;;;;5025395;28;20037;-58
2023/09/16 02:54:28;;;;;;;8.02;4.90;;;15.30;99.90;;;;;;5040140;28;20168;-60
2023/09/16 02:56:55;;;;;;;6.70;4.95;;;15.30;99.90;;;;;;5041990;28;20101;-58
2023/09/16 02:59:22;;;;;;;20.38;5.63;;;15.30;99.90;;;;;;5043368;28;20049;-58
2023/09/16 03:01:48;;;;;;;8.73;5.60;;;15.30;99.90;;;;;;5043871;28;20053;-59
2023/09/16 03:04:15;;;;;;;12.00;5.72;;;15.30;99.90;;;;;;5043508;28;20203;-59
2023/09/16 03:06:42;;;;;;;8.73;5.47;;;15.20;99.90;;;;;;5046973;28;20124;-57
2023/09/16 03:09:09;;;;;;;7.80;5.25;;;15.20;99.90;;;;;;5046623;28;20049;-58
2023/09/16 03:11:37;;;;;;;10.27;5.63;;;15.20;99.90;;;;;;5046427;28;20045;-57
2023/09/16 03:14:04;;;;;;;11.57;5.82;;;15.20;99.90;;;;;;5046228;28;20512;-59
2023/09/16 03:16:31;;;;;;;6.35;4.72;;;15.20;99.90;;;;;;5046465;28;20051;-58
2023/09/16 03:18:59;;;;;;;11.32;5.13;;;15.10;99.90;;;;;;5046900;28;20099;-59
2023/09/16 03:21:25;;;;;;;8.00;5.35;;;15.10;99.90;;;;;;5046979;28;20045;-59
2023/09/16 03:23:52;;;;;;;8.50;4.93;;;15.20;99.90;;;;;;5046737;28;20045;-59
2023/09/16 03:26:19;;;;;;;7.13;5.20;;;15.10;99.90;;;;;;5046468;28;20049;-58
2023/09/16 03:28:46;;;;;;;6.75;4.65;;;15.10;99.90;;;;;;5046438;28;20049;-58
2023/09/16 03:31:14;;;;;;;8.90;5.63;;;15.00;99.90;;;;;;5043273;28;20123;-59
2023/09/16 03:33:41;;;;;;;8.95;5.65;;;14.90;99.90;;;;;;5047254;28;20144;-59
2023/09/16 03:36:08;;;;;;;10.07;5.25;;;14.70;99.90;;;;;;5047629;28;20045;-59
2023/09/16 03:38:35;;;;;;;14.43;5.55;;;14.80;99.90;;;;;;5050890;28;20041;-59
2023/09/16 03:41:02;;;;;;;9.65;6.00;;;14.90;99.90;;;;;;5049765;28;20045;-57
2023/09/16 03:43:29;;;;;;;8.15;5.28;;;15.00;99.90;;;;;;5050599;28;20045;-58
2023/09/16 03:45:56;;;;;;;9.68;5.30;;;15.00;99.90;;;;;;5049621;28;20106;-57
2023/09/16 03:48:23;;;;;;;12.20;5.30;;;15.00;99.90;;;;;;5050593;28;20047;-57
2023/09/16 03:50:49;;;;;;;7.00;4.97;;;15.00;99.90;;;;;;5049519;28;20110;-57
2023/09/16 03:53:18;;;;;;;6.47;5.10;;;15.10;99.90;;;;;;5050192;28;20091;-57
2023/09/16 03:55:57;;;;;;;8.77;5.88;;;15.10;99.90;;;;;;5042057;28;20152;-58
2023/09/16 03:58:24;;;;;;;6.60;4.43;;;15.00;99.90;;;;;;5048075;28;20507;-58
2023/09/16 04:00:51;;;;;;;10.93;5.13;;;15.00;99.90;;;;;;5048099;28;20052;-57
2023/09/16 04:03:18;;;;;;;6.97;4.63;;;14.90;99.90;;;;;;5050302;28;20053;-59
2023/09/16 04:05:44;;;;;;;8.02;4.97;;;14.80;99.90;;;;;;5043622;28;20041;-58
2023/09/16 04:08:11;;;;;;;10.48;5.25;;;14.80;99.90;;;;;;5041181;28;20080;-57
2023/09/16 04:10:38;;;;;;;13.27;5.10;;;14.80;99.90;;;;;;5049199;28;20045;-57
2023/09/16 04:13:05;;;;;;;13.00;5.45;;;14.80;99.90;;;;;;5049186;28;20045;-58
2023/09/16 04:15:31;;;;;;;8.18;4.78;;;14.80;99.90;;;;;;5049259;28;20556;-57
2023/09/16 04:17:58;;;;;;;9.38;5.32;;;14.90;99.90;;;;;;5049425;28;20048;-57
2023/09/16 04:20:25;;;;;;;9.93;5.53;;;14.90;99.90;;;;;;5049302;28;20099;-57
2023/09/16 04:22:52;;;;;;;9.00;4.82;;;14.80;99.90;;;;;;5050031;28;20103;-57
2023/09/16 04:25:19;;;;;;;11.55;5.22;;;14.70;99.90;;;;;;5050552;28;20057;-57
2023/09/16 04:27:46;;;;;;;10.23;4.97;;;14.70;99.90;;;;;;5050228;28;20037;-57
2023/09/16 04:30:12;;;;;;;9.10;5.00;;;14.70;99.90;;;;;;5050520;28;20055;-56
2023/09/16 04:32:40;;;;;;;5.88;4.85;;;14.80;99.90;;;;;;5050713;28;20049;-55
2023/09/16 04:35:07;;;;;;;8.10;5.35;;;14.80;99.90;;;;;;5046526;28;20053;-58
2023/09/16 04:37:36;;;;;;;9.32;5.28;;;14.80;99.90;;;;;;5048985;28;20519;-57
2023/09/16 04:40:12;;;;;;;8.10;4.88;;;14.80;99.90;;;;;;5046302;28;20451;-62
2023/09/16 04:42:39;;;;;;;10.80;5.55;;;14.70;99.90;;;;;;5045538;28;20389;-56
2023/09/16 04:45:06;;;;;;;10.35;5.25;;;14.60;99.90;;;;;;5048296;28;20045;-58
2023/09/16 04:47:34;;;;;;;10.02;4.70;;;14.60;99.90;;;;;;5048054;28;20048;-57
2023/09/16 04:50:00;;;;;;;7.97;4.50;;;14.60;99.90;;;;;;5048822;28;20056;-55
2023/09/16 04:52:27;;;;;;;8.07;5.45;;;14.60;99.90;;;;;;5048534;28;20041;-57
2023/09/16 04:54:54;;;;;;;6.97;4.72;;;14.60;99.90;;;;;;5048982;28;20126;-57
2023/09/16 04:57:21;;;;;;;7.15;4.93;;;14.60;99.90;;;;;;5048191;28;20049;-58
2023/09/16 04:59:48;;;;;;;10.68;5.45;;;14.70;99.90;;;;;;5047182;28;20455;-57
2023/09/16 05:02:15;;;;;;;9.75;5.80;;;14.80;99.90;;;;;;5048579;28;20514;-57
2023/09/16 05:04:42;;;;;;;7.90;5.68;;;14.80;99.90;;;;;;5048623;28;20045;-57
2023/09/16 05:07:08;;;;;;;8.13;4.80;;;14.70;99.90;;;;;;5048019;28;20056;-58
2023/09/16 05:09:35;;;;;;;9.43;6.03;;;14.70;99.90;;;;;;5048001;28;20568;-56
2023/09/16 05:12:02;;;;;;;7.72;4.50;;;14.80;99.90;;;;;;5048046;28;20056;-58
2023/09/16 05:14:29;;;;;;;6.35;4.57;;;14.70;99.90;;;;;;5048337;28;20087;-58
2023/09/16 05:16:56;;;;;;;6.35;4.22;;;14.60;99.90;;;;;;5048051;28;20087;-58
2023/09/16 05:19:22;;;;;;;7.78;4.60;;;14.60;99.90;;;;;;5046404;28;20676;-58
2023/09/16 05:21:49;;;;;;;9.68;5.50;;;14.60;99.90;;;;;;5048175;28;20068;-59
2023/09/16 05:24:16;;;;;;;9.60;4.78;;;14.60;99.90;;;;;;5047872;28;20098;-58
2023/09/16 05:26:43;;;;;;;7.60;4.65;;;14.60;99.90;;;;;;5047874;28;20037;-58
2023/09/16 05:29:09;;;;;;;11.68;6.05;;;14.70;99.90;;;;;;5047623;28;20119;-59
2023/09/16 05:31:36;;;;;;;11.20;5.07;;;14.70;99.90;;;;;;5046142;28;20056;-57
2023/09/16 05:34:03;;;;;;;7.35;4.25;;;14.70;99.90;;;;;;5048164;28;20098;-58
2023/09/16 05:36:32;;;;;;;8.02;5.00;;;14.60;99.90;;;;;;5048042;28;20516;-58
2023/09/16 05:39:00;;;;;;;8.30;4.88;;;14.60;99.90;;;;;;5047641;28;20201;-57
2023/09/16 05:41:28;;;;;;;5.45;4.60;;;14.60;99.90;;;;;;5048182;28;20053;-58
2023/09/16 05:43:55;;;;;;;7.43;5.18;;;14.60;99.90;;;;;;5047759;28;20153;-58
2023/09/16 05:46:23;;;;;;;8.63;4.97;;;14.60;99.90;;;;;;5048202;28;20106;-58
2023/09/16 05:48:50;;;;;;;9.85;5.82;;;14.50;99.90;;;;;;5047240;28;20050;-56
2023/09/16 05:51:17;;;;;;;7.75;4.97;;;14.60;99.90;;;;;;5041874;28;20570;-58
2023/09/16 05:53:44;;;;;;;6.90;4.43;;;14.60;99.90;;;;;;5047475;28;20045;-58
2023/09/16 05:56:11;;;;;;;6.50;4.57;;;14.60;99.90;;;;;;5047500;28;20070;-59
2023/09/16 05:58:37;;;;;;;13.07;6.20;;;14.60;99.90;;;;;;5045728;28;20048;-58
2023/09/16 06:01:04;;;;;;;11.43;5.50;;;14.60;99.90;;;;;;5042806;28;20049;-58
2023/09/16 06:03:31;;;;;;;14.00;6.32;;;14.60;99.90;;;;;;5047703;28;20051;-57
2023/09/16 06:06:01;;;;;;;11.15;5.50;;;14.60;99.90;;;;;;5047809;28;20059;-57
2023/09/16 06:08:28;;;;;;;10.05;6.30;;;14.60;99.90;;;;;;5047979;28;20357;-57
2023/09/16 06:10:55;;;;;;;12.88;6.55;;;14.70;99.90;;;;;;5046746;28;20053;-58
2023/09/16 06:13:22;;;;;;;11.48;5.43;;;14.70;99.90;;;;;;5035647;28;20056;-56
2023/09/16 06:15:49;;;;;;;12.10;6.25;;;14.80;99.90;;;;;;5047362;28;20072;-56
2023/09/16 06:18:16;;;;;;;11.88;5.35;;;14.80;99.90;;;;;;5047514;28;20280;-57
2023/09/16 06:20:43;;;;;;;7.85;5.30;;;14.80;99.90;;;;;;5046640;28;20048;-55
2023/09/16 06:23:09;;;;;;;9.70;6.20;;;14.80;99.90;;;;;;5046295;28;20041;-58
2023/09/16 06:25:37;;;;;;;10.93;5.15;;;14.80;99.90;;;;;;5045674;28;20091;-55
2023/09/16 06:28:05;;;;;;;9.20;5.40;;;14.80;99.90;;;;;;5047526;28;20067;-58
2023/09/16 06:30:31;;;;;;;9.18;5.35;;;14.70;99.90;;;;;;5046810;28;20044;-58
2023/09/16 06:32:58;;;;;;;15.90;5.93;;;14.70;99.90;;;;;;5047792;28;20041;-57
2023/09/16 06:35:25;;;;;;;16.60;7.10;;;14.70;99.90;;;;;;5045581;28;20040;-57
2023/09/16 06:37:52;;;;;;;10.27;5.78;;;14.80;99.90;;;;;;5036348;28;20041;-58
2023/09/16 06:40:19;;;;;;;14.32;6.03;;;14.80;99.90;;;;;;4696204;27;9999869;-54
2023/09/16 06:42:46;;;;;;;9.00;5.72;;;14.80;99.90;;;;;;5043618;28;20394;-57
2023/09/16 06:45:13;;;;;;;10.38;5.93;;;14.80;99.90;;;;;;5030193;28;20085;-58
2023/09/16 06:47:39;;;;;;;16.75;7.13;;;14.90;99.90;;;;;;5039424;28;20045;-58
2023/09/16 06:50:08;;;;;;;10.13;6.28;;;15.00;99.90;;;;;;5033310;28;20110;-57
2023/09/16 06:52:36;;;;;;;9.38;6.38;;;15.00;99.90;;;;;;5038853;28;20057;-58
2023/09/16 06:55:04;;;;;;;14.70;6.68;;;15.10;99.90;;;;;;5032791;28;20477;-58
2023/09/16 06:57:31;;;;;;;14.50;7.95;;;15.10;99.90;;;;;;5039425;28;20087;-57
2023/09/16 06:59:58;;;;;;;10.93;7.13;;;15.10;99.90;;;;;;5029129;28;20569;-58
2023/09/16 07:02:25;;;;;;;11.90;6.88;;;15.10;99.90;;;;;;5043486;28;20060;-55
2023/09/16 07:04:52;;;;;;;9.10;6.57;;;15.20;99.90;;;;;;5036347;28;20107;-58
2023/09/16 07:07:23;;;;;;;14.43;7.55;;;15.30;99.90;;;;;;5036898;28;20080;-58
2023/09/16 07:09:56;;;;;;;12.23;8.43;;;15.30;99.90;;;;;;5045202;28;20334;-58
2023/09/16 07:12:24;;;;;;;18.27;8.27;;;15.40;99.90;;;;;;5046062;28;20068;-56
2023/09/16 07:14:51;;;;;;;15.95;10.18;;;15.50;99.90;;;;;;5047327;28;20462;-58
2023/09/16 07:17:18;;;;;;;15.07;9.15;;;15.60;99.90;;;;;;5045294;28;20057;-59
2023/09/16 07:19:45;;;;;;;15.32;10.27;;;15.70;99.90;;;;;;5047447;28;20128;-58
2023/09/16 07:22:12;;;;;;;21.20;9.88;;;15.80;99.90;;;;;;5048057;28;20076;-58
2023/09/16 07:24:39;;;;;;;15.60;9.55;;;15.80;99.90;;;;;;5047602;28;20041;-59
2023/09/16 07:27:05;;;;;;;18.40;9.75;;;16.00;99.90;;;;;;5046680;28;20057;-58
2023/09/16 07:29:32;;;;;;;16.88;10.80;;;16.10;99.90;;;;;;5046487;28;20044;-58
2023/09/16 07:31:59;;;;;;;34.47;19.13;;;16.30;99.90;;;;;;5046421;28;20134;-58
2023/09/16 07:34:26;;;;;;;34.08;22.40;;;16.40;99.90;;;;;;5047062;28;20045;-57
2023/09/16 07:36:53;;;;;;;45.67;21.98;;;16.60;99.90;;;;;;5041390;28;20102;-58
2023/09/16 07:39:20;;;;;;;35.22;21.60;;;16.70;99.90;;;;;;5045677;28;20045;-58
2023/09/16 07:41:47;;;;;;;41.72;24.67;;;16.80;99.90;;;;;;5042173;28;20114;-59
2023/09/16 07:44:13;;;;;;;36.95;22.83;;;16.90;99.90;;;;;;5047868;28;20076;-60
2023/09/16 07:46:40;;;;;;;30.80;19.63;;;17.00;99.90;;;;;;5050335;28;20100;-56
2023/09/16 07:49:07;;;;;;;40.22;23.05;;;17.10;99.90;;;;;;5050368;28;20058;-57
2023/09/16 07:51:34;;;;;;;39.60;22.25;;;17.20;99.90;;;;;;5040322;28;20068;-57
2023/09/16 07:54:13;;;;;;;36.92;21.90;;;17.30;99.90;;;;;;5032412;28;20155;-58
2023/09/16 07:56:41;;;;;;;35.70;22.08;;;17.50;99.90;;;;;;5037011;28;20049;-59
2023/09/16 07:59:07;;;;;;;39.35;22.63;;;17.50;99.90;;;;;;5035974;28;20072;-56
2023/09/16 08:01:34;;;;;;;42.47;22.40;;;17.60;99.90;;;;;;5033503;28;20041;-62
2023/09/16 08:04:01;;;;;;;35.63;21.20;;;17.70;99.90;;;;;;5039467;28;20493;-58
2023/09/16 08:06:28;;;;;;;39.67;21.73;;;17.70;99.90;;;;;;5041439;28;20045;-58
2023/09/16 08:08:55;;;;;;;35.22;22.27;;;17.80;99.90;;;;;;5033660;28;20102;-59
2023/09/16 08:11:22;;;;;;;39.10;21.55;;;17.90;99.90;;;;;;5043446;28;20057;-59
2023/09/16 08:13:51;;;;;;;31.45;19.98;;;18.00;99.90;;;;;;5038972;28;20049;-59
2023/09/16 08:16:18;;;;;;;30.02;20.52;;;18.10;99.90;;;;;;5037456;28;20136;-59
2023/09/16 08:18:45;;;;;;;26.25;18.48;;;18.20;99.90;;;;;;5034801;28;20051;-57
2023/09/16 08:21:12;;;;;;;29.17;18.20;;;18.30;99.90;;;;;;5039810;28;20582;-55
2023/09/16 08:23:39;;;;;;;30.13;19.58;;;18.40;99.90;;;;;;5041978;28;20307;-56
2023/09/16 08:26:06;;;;;;;34.53;19.85;;;18.40;99.90;;;;;;5040762;28;20056;-55
2023/09/16 08:28:35;;;;;;;30.92;18.20;;;18.50;99.90;;;;;;5045705;28;20524;-57
2023/09/16 08:31:03;;;;;;;27.98;17.67;;;18.60;99.90;;;;;;5039524;28;20055;-57
2023/09/16 08:33:30;;;;;;;24.38;17.40;;;18.70;99.90;;;;;;5046999;28;20049;-56
2023/09/16 08:35:57;;;;;;;31.08;16.80;;;18.80;99.90;;;;;;5046831;28;20059;-56
2023/09/16 08:38:24;;;;;;;25.05;15.10;;;18.80;99.90;;;;;;5048494;28;20487;-56
2023/09/16 08:41:00;;;;;;;30.67;17.67;;;18.90;99.90;;;;;;5040165;28;20107;-55
2023/09/16 08:43:36;;;;;;;27.05;14.85;;;19.00;99.90;;;;;;5039535;28;20574;-55
2023/09/16 08:46:03;;;;;;;27.67;15.20;;;19.10;99.90;;;;;;5040095;28;20049;-52
2023/09/16 08:48:34;;;;;;;27.23;14.40;;;19.10;99.90;;;;;;5041902;28;20049;-50
2023/09/16 08:51:02;;;;;;;22.65;13.95;;;19.30;99.90;;;;;;5032779;28;20049;-52
2023/09/16 08:53:30;;;;;;;21.98;13.05;;;19.40;99.90;;;;;;5040074;28;20088;-55
2023/09/16 08:55:57;;;;;;;21.30;12.68;;;19.50;99.90;;;;;;5041045;28;20122;-56
2023/09/16 08:58:24;;;;;;;23.95;12.85;;;19.60;99.90;;;;;;5044654;28;20053;-56
2023/09/16 09:00:51;;;;;;;25.15;12.63;;;19.60;99.90;;;;;;5037546;28;20091;-56
2023/09/16 09:03:18;;;;;;;18.75;11.98;;;19.80;99.90;;;;;;5043153;28;20056;-54
2023/09/16 09:05:45;;;;;;;16.52;11.13;;;19.90;99.90;;;;;;5029494;28;20049;-53
2023/09/16 09:08:12;;;;;;;18.80;10.93;;;19.90;99.90;;;;;;5035387;28;20099;-56
2023/09/16 09:10:42;;;;;;;25.20;11.02;;;20.00;99.90;;;;;;5042249;28;20144;-52
2023/09/16 09:13:12;;;;;;;23.17;10.65;;;20.40;99.90;;;;;;5040988;28;20491;-54
2023/09/16 09:15:40;;;;;;;19.23;10.05;;;20.90;99.90;;;;;;5046219;28;20484;-53
2023/09/16 09:18:07;;;;;;;18.75;10.98;;;21.30;99.90;;;;;;5043164;28;20519;-57
2023/09/16 09:20:34;;;;;;;16.02;10.23;;;21.70;99.90;;;;;;5041735;28;20539;-55
2023/09/16 09:23:02;;;;;;;15.80;8.63;;;22.00;99.90;;;;;;5024460;28;20507;-57
2023/09/16 09:25:32;;;;;;;14.25;8.98;;;22.30;99.90;;;;;;5041894;28;20040;-54
2023/09/16 09:27:58;;;;;;;12.05;7.50;;;22.50;99.90;;;;;;5042648;28;20132;-55
2023/09/16 09:30:28;;;;;;;13.20;8.25;;;22.80;99.90;;;;;;5041324;28;20045;-57
2023/09/16 09:32:55;;;;;;;13.55;8.70;;;22.90;99.90;;;;;;5039900;28;20103;-58
2023/09/16 09:35:29;;;;;;;20.23;8.63;;;23.10;99.90;;;;;;5043246;28;20053;-59
2023/09/16 09:37:56;;;;;;;19.30;8.75;;;23.40;99.90;;;;;;5041041;28;20389;-58
2023/09/16 09:40:23;;;;;;;16.85;8.88;;;23.70;99.90;;;;;;5043691;28;20053;-58
2023/09/16 09:42:57;;;;;;;19.35;9.02;;;23.80;99.90;;;;;;5039685;28;20061;-60
2023/09/16 09:45:25;;;;;;;17.50;8.40;;;23.70;99.90;;;;;;5043468;28;20045;-59
2023/09/16 09:47:52;;;;;;;15.90;8.20;;;23.40;99.90;;;;;;5047245;28;20040;-57
2023/09/16 09:50:20;;;;;;;18.30;8.38;;;23.20;99.90;;;;;;5040631;28;20057;-57
2023/09/16 09:52:54;;;;;;;19.77;8.25;;;23.10;99.90;;;;;;5042358;28;20118;-56
2023/09/16 09:55:23;;;;;;;17.63;7.78;;;23.00;99.90;;;;;;5038680;28;20063;-56
2023/09/16 09:57:51;;;;;;;25.27;7.00;;;22.90;99.90;;;;;;5039758;28;20156;-57
2023/09/16 10:00:19;;;;;;;11.15;6.60;;;22.90;99.90;;;;;;5038266;28;20059;-56
2023/09/16 10:02:47;;;;;;;9.50;6.35;;;22.80;99.90;;;;;;5032614;28;20045;-56
2023/09/16 10:05:17;;;;;;;15.82;7.68;;;22.80;99.90;;;;;;5040617;28;20069;-56
2023/09/16 10:07:44;;;;;;;13.10;7.30;;;22.70;99.90;;;;;;5038730;28;20119;-56
2023/09/16 10:10:21;;;;;;;13.20;7.20;;;22.70;99.90;;;;;;5043119;28;20048;-54
2023/09/16 10:12:54;;;;;;;13.57;6.43;;;22.60;99.90;;;;;;5032772;28;20301;-58
2023/09/16 10:15:29;;;;;;;14.70;6.80;;;22.60;99.90;;;;;;5038247;28;20049;-57
2023/09/16 10:17:56;;;;;;;12.90;7.93;;;22.70;99.90;;;;;;5036765;28;20118;-55
2023/09/16 10:20:23;;;;;;;14.07;7.45;;;22.70;99.90;;;;;;5032709;28;20068;-56
2023/09/16 10:22:51;;;;;;;10.40;5.82;;;22.70;99.90;;;;;;5042630;28;20505;-55
2023/09/16 10:25:17;;;;;;;18.63;8.30;;;22.70;99.90;;;;;;5043643;28;20091;-56
2023/09/16 10:27:54;;;;;;;15.43;9.05;;;22.70;99.90;;;;;;5048983;28;20444;-56
2023/09/16 10:30:21;;;;;;;16.38;7.47;;;22.70;99.90;;;;;;5040386;28;20386;-56
2023/09/16 10:32:47;;;;;;;17.15;6.88;;;22.70;99.90;;;;;;5042739;28;20041;-56
2023/09/16 10:35:15;;;;;;;17.75;6.60;;;22.70;99.90;;;;;;5044037;28;20045;-56
2023/09/16 10:37:41;;;;;;;11.68;6.78;;;22.70;99.90;;;;;;5042048;28;20053;-57
2023/09/16 10:40:09;;;;;;;10.05;6.18;;;22.80;99.90;;;;;;5039362;28;20126;-56
2023/09/16 10:42:36;;;;;;;9.02;6.45;;;22.80;99.90;;;;;;5038001;28;20050;-53
2023/09/16 10:45:03;;;;;;;16.30;8.07;;;22.80;99.90;;;;;;5042996;28;20075;-57
2023/09/16 10:47:31;;;;;;;15.63;8.02;;;22.90;99.90;;;;;;5044561;28;20056;-56
2023/09/16 10:49:57;;;;;;;16.30;7.80;;;22.90;99.90;;;;;;5046264;28;20041;-56
2023/09/16 10:52:37;;;;;;;15.63;7.20;;;23.00;99.90;;;;;;5045329;28;20084;-56
2023/09/16 10:55:15;;;;;;;12.25;6.10;;;23.00;99.90;;;;;;5045610;28;20049;-56
2023/09/16 10:58:16;;;;;;;11.13;6.00;;;23.10;99.90;;;;;;5035563;28;20067;-57
2023/09/16 11:00:53;;;;;;;8.82;4.90;;;23.20;99.90;;;;;;5017057;28;20067;-54
2023/09/16 11:03:21;;;;;;;11.52;5.43;;;23.20;99.90;;;;;;5039637;28;20652;-57
2023/09/16 11:05:48;;;;;;;8.00;4.57;;;23.30;99.90;;;;;;5043742;28;20064;-55
2023/09/16 11:08:15;;;;;;;13.50;4.93;;;23.30;99.90;;;;;;5040753;28;20507;-58
2023/09/16 11:10:42;;;;;;;9.63;4.18;;;23.30;99.90;;;;;;5044580;28;20037;-57
2023/09/16 11:13:08;;;;;;;9.40;4.72;;;23.40;99.90;;;;;;5043563;28;20044;-54
2023/09/16 11:15:36;;;;;;;10.02;4.63;;;23.40;99.90;;;;;;5044781;28;20076;-56
2023/09/16 11:18:15;;;;;;;8.27;4.05;;;23.50;99.90;;;;;;5036676;28;20045;-58
2023/09/16 11:20:42;;;;;;;7.28;4.22;;;23.60;99.90;;;;;;5034274;28;20076;-54
2023/09/16 11:23:09;;;;;;;11.15;4.47;;;23.70;99.90;;;;;;5040405;28;20566;-58
2023/09/16 11:25:43;;;;;;;16.42;5.90;;;23.80;99.90;;;;;;5071771;28;20041;-61
2023/09/16 11:28:13;;;;;;;18.60;4.93;;;23.80;99.90;;;;;;5044488;28;20053;-56
2023/09/16 11:30:52;;;;;;;11.02;4.93;;;23.80;99.90;;;;;;5043137;28;20484;-56
2023/09/16 11:33:33;;;;;;;16.55;4.68;;;23.90;99.90;;;;;;5043695;28;20052;-56
2023/09/16 11:36:11;;;;;;;14.50;6.18;;;23.90;99.90;;;;;;5041699;28;20053;-53
2023/09/16 11:38:39;;;;;;;9.02;4.03;;;24.00;99.90;;;;;;5040622;28;20134;-57
2023/09/16 11:41:09;;;;;;;11.40;4.15;;;24.00;99.90;;;;;;5041283;28;20045;-56
2023/09/16 11:43:37;;;;;;;5.63;3.15;;;24.00;99.90;;;;;;5037123;28;20053;-56
2023/09/16 11:46:08;;;;;;;13.93;3.60;;;24.10;99.90;;;;;;5040921;28;20160;-56
2023/09/16 11:48:54;;;;;;;9.65;3.70;;;24.10;99.90;;;;;;5044830;28;20087;-55
2023/09/16 11:51:24;;;;;;;14.02;4.70;;;24.10;99.90;;;;;;5034875;28;20095;-57
2023/09/16 11:53:52;;;;;;;8.55;3.92;;;24.30;99.90;;;;;;5047001;28;20071;-56
2023/09/16 11:56:24;;;;;;;7.22;3.08;;;24.40;99.90;;;;;;5045117;28;20052;-57
2023/09/16 11:58:54;;;;;;;9.53;3.17;;;24.50;99.90;;;;;;5045821;28;20067;-56
2023/09/16 12:01:30;;;;;;;10.65;2.75;;;24.60;99.90;;;;;;5044837;28;20059;-56
2023/09/16 12:03:57;;;;;;;7.78;2.40;;;24.70;99.90;;;;;;5044543;28;20078;-56
2023/09/16 12:06:27;;;;;;;8.68;2.45;;;24.80;99.90;;;;;;5045899;28;20400;-55
2023/09/16 12:08:55;;;;;;;11.23;2.83;;;24.90;99.90;;;;;;5045407;28;20141;-57
2023/09/16 12:11:23;;;;;;;7.10;2.38;;;25.00;99.90;;;;;;5041412;28;20044;-56
2023/09/16 12:13:50;;;;;;;6.93;2.55;;;25.10;99.90;;;;;;5042521;28;20524;-53
2023/09/16 12:16:16;;;;;;;6.53;2.58;;;25.20;99.90;;;;;;5026417;28;20054;-56
2023/09/16 12:18:43;;;;;;;4.13;2.20;;;25.20;99.90;;;;;;5045788;28;20045;-55
2023/09/16 12:21:10;;;;;;;11.32;2.78;;;25.30;99.90;;;;;;5043020;28;20048;-57
2023/09/16 12:23:38;;;;;;;9.00;2.58;;;25.40;99.90;;;;;;5046708;28;20112;-55
2023/09/16 12:26:07;;;;;;;11.55;3.45;;;25.40;99.90;;;;;;5043422;28;20056;-56
2023/09/16 12:28:34;;;;;;;9.32;2.33;;;25.30;99.90;;;;;;5038491;28;20053;-56
2023/09/16 12:31:01;;;;;;;8.95;2.85;;;25.30;99.90;;;;;;5044388;28;20466;-58
2023/09/16 12:33:37;;;;;;;4.22;2.92;;;25.40;99.90;;;;;;5036403;28;20364;-57
2023/09/16 12:36:04;;;;;;;6.00;2.78;;;25.40;99.90;;;;;;5046272;28;20040;-54
2023/09/16 12:38:35;;;;;;;5.88;2.75;;;25.50;99.90;;;;;;5043841;28;20406;-53
2023/09/16 12:41:02;;;;;;;4.90;2.70;;;25.60;99.90;;;;;;5042045;28;20126;-53
2023/09/16 12:43:30;;;;;;;16.35;3.40;;;25.70;99.90;;;;;;5037053;28;20056;-57